sensor_id;sensor_type;location;lat;lon;timestamp;temperature;humidity
27573;DHT22;15009;53.082;8.768;2022-11-02T00:02:57;22.00;99.90
27573;DHT22;15009;53.082;8.768;2022-11-02T00:05:58;22.00;99.90
27573;DHT22;15009;53.082;8.768;2022-11-02T00:08:58;21.90;99.90
27573;DHT22;15009;53.082;8.768;2022-11-02T00:11:59;21.90;99.90
27573;DHT22;15009;53.082;8.768;2022-11-02T00:15:00;21.90;99.90
27573;DHT22;15009;53.082;8.768;2022-11-02T00:18:11;21.90;99.90
27573;DHT22;15009;53.082;8.768;2022-11-02T00:21:14;21.90;99.90
27573;DHT22;15009;53.082;8.768;2022-11-02T00:24:15;21.90;99.90
27573;DHT22;15009;53.082;8.768;2022-11-02T00:27:16;21.90;99.90
27573;DHT22;15009;53.082;8.768;2022-11-02T00:30:17;21.90;99.90
27573;DHT22;15009;53.082;8.768;2022-11-02T00:33:17;21.80;99.90
27573;DHT22;15009;53.082;8.768;2022-11-02T00:36:18;21.80;99.90
27573;DHT22;15009;53.082;8.768;2022-11-02T00:39:19;21.80;99.90
27573;DHT22;15009;53.082;8.768;2022-11-02T00:42:19;21.80;99.90
27573;DHT22;15009;53.082;8.768;2022-11-02T00:45:21;21.80;99.90
27573;DHT22;15009;53.082;8.768;2022-11-02T00:48:22;21.80;99.90
27573;DHT22;15009;53.082;8.768;2022-11-02T00:51:22;21.80;99.90
27573;DHT22;15009;53.082;8.768;2022-11-02T00:54:23;21.80;99.90
27573;DHT22;15009;53.082;8.768;2022-11-02T00:57:24;21.80;99.90
27573;DHT22;15009;53.082;8.768;2022-11-02T01:00:24;21.80;99.90
27573;DHT22;15009;53.082;8.768;2022-11-02T01:03:25;21.80;99.90
27573;DHT22;15009;53.082;8.768;2022-11-02T01:06:26;21.80;99.90
27573;DHT22;15009;53.082;8.768;2022-11-02T01:09:26;21.70;99.90
27573;DHT22;15009;53.082;8.768;2022-11-02T01:12:27;21.80;99.90
27573;DHT22;15009;53.082;8.768;2022-11-02T01:15:28;21.80;99.90
27573;DHT22;15009;53.082;8.768;2022-11-02T01:18:28;21.70;99.90
27573;DHT22;15009;53.082;8.768;2022-11-02T01:21:29;21.70;99.90
27573;DHT22;15009;53.082;8.768;2022-11-02T01:24:29;21.70;99.90
27573;DHT22;15009;53.082;8.768;2022-11-02T01:27:31;21.70;99.90
27573;DHT22;15009;53.082;8.768;2022-11-02T01:30:31;21.70;99.90
27573;DHT22;15009;53.082;8.768;2022-11-02T01:33:37;21.70;99.90
27573;DHT22;15009;53.082;8.768;2022-11-02T01:36:43;21.70;99.90
27573;DHT22;15009;53.082;8.768;2022-11-02T01:39:45;21.60;99.90
27573;DHT22;15009;53.082;8.768;2022-11-02T01:42:46;21.60;99.90
27573;DHT22;15009;53.082;8.768;2022-11-02T01:45:48;21.60;99.90
27573;DHT22;15009;53.082;8.768;2022-11-02T01:48:54;21.60;99.90
27573;DHT22;15009;53.082;8.768;2022-11-02T01:52:04;21.60;99.90
27573;DHT22;15009;53.082;8.768;2022-11-02T01:55:18;21.60;99.90
27573;DHT22;15009;53.082;8.768;2022-11-02T01:58:20;21.60;99.90
27573;DHT22;15009;53.082;8.768;2022-11-02T02:01:24;21.60;99.90
27573;DHT22;15009;53.082;8.768;2022-11-02T02:04:26;21.60;99.90
27573;DHT22;15009;53.082;8.768;2022-11-02T02:07:27;21.60;99.90
27573;DHT22;15009;53.082;8.768;2022-11-02T02:10:29;21.60;99.90
27573;DHT22;15009;53.082;8.768;2022-11-02T02:13:30;21.60;99.90
27573;DHT22;15009;53.082;8.768;2022-11-02T02:19:39;21.60;99.90
27573;DHT22;15009;53.082;8.768;2022-11-02T02:29:20;21.60;99.90
27573;DHT22;15009;53.082;8.768;2022-11-02T02:33:04;21.60;99.90
27573;DHT22;15009;53.082;8.768;2022-11-02T02:35:51;21.60;99.90
27573;DHT22;15009;53.082;8.768;2022-11-02T02:48:46;21.60;99.90
27573;DHT22;15009;53.082;8.768;2022-11-02T02:51:48;21.60;99.90
27573;DHT22;15009;53.082;8.768;2022-11-02T02:54:51;21.60;99.90
27573;DHT22;15009;53.082;8.768;2022-11-02T02:57:53;21.60;99.90
27573;DHT22;15009;53.082;8.768;2022-11-02T03:00:56;21.60;99.90
27573;DHT22;15009;53.082;8.768;2022-11-02T03:03:58;21.50;99.90
27573;DHT22;15009;53.082;8.768;2022-11-02T03:06:59;21.60;99.90
27573;DHT22;15009;53.082;8.768;2022-11-02T03:10:10;21.50;99.90
27573;DHT22;15009;53.082;8.768;2022-11-02T03:23:32;21.50;99.90
27573;DHT22;15009;53.082;8.768;2022-11-02T03:30:21;21.50;99.90
27573;DHT22;15009;53.082;8.768;2022-11-02T03:33:20;21.40;99.90
27573;DHT22;15009;53.082;8.768;2022-11-02T03:43:17;21.50;99.90
27573;DHT22;15009;53.082;8.768;2022-11-02T03:46:20;21.40;99.90
27573;DHT22;15009;53.082;8.768;2022-11-02T03:49:23;21.40;99.90
27573;DHT22;15009;53.082;8.768;2022-11-02T03:52:28;21.50;99.90
27573;DHT22;15009;53.082;8.768;2022-11-02T03:55:34;21.50;99.90
27573;DHT22;15009;53.082;8.768;2022-11-02T03:58:37;21.50;99.90
27573;DHT22;15009;53.082;8.768;2022-11-02T04:01:47;21.50;99.90
27573;DHT22;15009;53.082;8.768;2022-11-02T04:04:51;21.50;99.90
27573;DHT22;15009;53.082;8.768;2022-11-02T04:07:53;21.50;99.90
27573;DHT22;15009;53.082;8.768;2022-11-02T04:11:14;21.50;99.90
27573;DHT22;15009;53.082;8.768;2022-11-02T04:14:33;21.50;99.90
27573;DHT22;15009;53.082;8.768;2022-11-02T04:17:40;21.40;99.90
27573;DHT22;15009;53.082;8.768;2022-11-02T04:20:59;21.40;99.90
27573;DHT22;15009;53.082;8.768;2022-11-02T04:24:00;21.40;99.90
27573;DHT22;15009;53.082;8.768;2022-11-02T04:27:19;21.40;99.90
27573;DHT22;15009;53.082;8.768;2022-11-02T04:30:21;21.50;99.90
27573;DHT22;15009;53.082;8.768;2022-11-02T04:33:22;21.60;99.90
27573;DHT22;15009;53.082;8.768;2022-11-02T04:36:35;21.70;99.90
27573;DHT22;15009;53.082;8.768;2022-11-02T04:39:35;21.70;99.90
27573;DHT22;15009;53.082;8.768;2022-11-02T04:42:36;21.70;99.90
27573;DHT22;15009;53.082;8.768;2022-11-02T04:45:36;21.70;99.90
27573;DHT22;15009;53.082;8.768;2022-11-02T04:48:37;21.70;99.90
27573;DHT22;15009;53.082;8.768;2022-11-02T04:51:38;21.70;99.90
27573;DHT22;15009;53.082;8.768;2022-11-02T04:54:41;21.70;99.90
27573;DHT22;15009;53.082;8.768;2022-11-02T04:57:45;21.70;99.90
27573;DHT22;15009;53.082;8.768;2022-11-02T05:00:45;21.70;99.90
27573;DHT22;15009;53.082;8.768;2022-11-02T05:03:47;21.70;99.90
27573;DHT22;15009;53.082;8.768;2022-11-02T05:06:48;21.70;99.90
27573;DHT22;15009;53.082;8.768;2022-11-02T05:09:49;21.70;99.90
27573;DHT22;15009;53.082;8.768;2022-11-02T05:12:56;21.60;99.90
27573;DHT22;15009;53.082;8.768;2022-11-02T05:15:58;21.60;99.90
27573;DHT22;15009;53.082;8.768;2022-11-02T05:18:59;21.60;99.90
27573;DHT22;15009;53.082;8.768;2022-11-02T05:21:59;21.60;99.90
27573;DHT22;15009;53.082;8.768;2022-11-02T05:25:00;21.50;99.90
27573;DHT22;15009;53.082;8.768;2022-11-02T05:28:00;21.40;99.90
27573;DHT22;15009;53.082;8.768;2022-11-02T05:31:02;21.40;99.90
27573;DHT22;15009;53.082;8.768;2022-11-02T05:34:02;21.40;99.90
27573;DHT22;15009;53.082;8.768;2022-11-02T05:37:03;21.30;99.90
27573;DHT22;15009;53.082;8.768;2022-11-02T05:40:04;21.30;99.90
27573;DHT22;15009;53.082;8.768;2022-11-02T05:43:07;21.30;99.90
27573;DHT22;15009;53.082;8.768;2022-11-02T05:46:08;21.30;99.90
27573;DHT22;15009;53.082;8.768;2022-11-02T05:49:08;21.30;99.90
27573;DHT22;15009;53.082;8.768;2022-11-02T05:52:09;21.30;99.90
27573;DHT22;15009;53.082;8.768;2022-11-02T05:55:10;21.30;99.90
27573;DHT22;15009;53.082;8.768;2022-11-02T05:58:10;21.30;99.90
27573;DHT22;15009;53.082;8.768;2022-11-02T06:01:11;21.30;99.90
27573;DHT22;15009;53.082;8.768;2022-11-02T06:04:11;21.30;99.90
27573;DHT22;15009;53.082;8.768;2022-11-02T06:07:12;21.30;99.90
27573;DHT22;15009;53.082;8.768;2022-11-02T06:10:13;21.30;99.90
27573;DHT22;15009;53.082;8.768;2022-11-02T06:13:13;21.40;99.90
27573;DHT22;15009;53.082;8.768;2022-11-02T06:16:14;21.40;99.90
27573;DHT22;15009;53.082;8.768;2022-11-02T06:19:15;21.40;99.90
27573;DHT22;15009;53.082;8.768;2022-11-02T06:22:16;21.40;99.90
27573;DHT22;15009;53.082;8.768;2022-11-02T06:25:16;21.40;99.90
27573;DHT22;15009;53.082;8.768;2022-11-02T06:28:17;21.30;99.90
27573;DHT22;15009;53.082;8.768;2022-11-02T06:31:18;21.40;99.90
27573;DHT22;15009;53.082;8.768;2022-11-02T06:34:18;21.40;99.90
27573;DHT22;15009;53.082;8.768;2022-11-02T06:37:19;21.40;99.90
27573;DHT22;15009;53.082;8.768;2022-11-02T06:40:19;21.40;99.90
27573;DHT22;15009;53.082;8.768;2022-11-02T06:43:20;21.40;99.90
27573;DHT22;15009;53.082;8.768;2022-11-02T06:46:21;21.40;99.90
27573;DHT22;15009;53.082;8.768;2022-11-02T06:49:21;21.40;99.90
27573;DHT22;15009;53.082;8.768;2022-11-02T06:52:22;21.30;99.90
27573;DHT22;15009;53.082;8.768;2022-11-02T06:55:23;21.30;99.90
27573;DHT22;15009;53.082;8.768;2022-11-02T06:58:24;21.30;99.90
27573;DHT22;15009;53.082;8.768;2022-11-02T07:01:25;21.30;99.90
27573;DHT22;15009;53.082;8.768;2022-11-02T07:04:26;21.30;99.90
27573;DHT22;15009;53.082;8.768;2022-11-02T07:07:26;21.30;99.90
27573;DHT22;15009;53.082;8.768;2022-11-02T07:10:27;21.30;99.90
27573;DHT22;15009;53.082;8.768;2022-11-02T07:13:28;21.30;99.90
27573;DHT22;15009;53.082;8.768;2022-11-02T07:16:28;21.30;99.90
27573;DHT22;15009;53.082;8.768;2022-11-02T07:19:29;21.30;99.90
27573;DHT22;15009;53.082;8.768;2022-11-02T07:22:30;21.30;99.90
27573;DHT22;15009;53.082;8.768;2022-11-02T07:25:32;21.30;99.90
27573;DHT22;15009;53.082;8.768;2022-11-02T07:28:32;21.30;99.90
27573;DHT22;15009;53.082;8.768;2022-11-02T07:31:36;21.30;99.90
27573;DHT22;15009;53.082;8.768;2022-11-02T07:34:36;21.30;99.90
27573;DHT22;15009;53.082;8.768;2022-11-02T07:37:37;21.40;99.90
27573;DHT22;15009;53.082;8.768;2022-11-02T07:40:38;21.40;99.90
27573;DHT22;15009;53.082;8.768;2022-11-02T07:43:38;21.30;99.90
27573;DHT22;15009;53.082;8.768;2022-11-02T07:46:39;21.40;99.90
27573;DHT22;15009;53.082;8.768;2022-11-02T07:49:40;21.40;99.90
27573;DHT22;15009;53.082;8.768;2022-11-02T07:55:45;21.60;99.90
27573;DHT22;15009;53.082;8.768;2022-11-02T07:58:45;21.60;99.90
27573;DHT22;15009;53.082;8.768;2022-11-02T08:01:46;21.60;99.90
27573;DHT22;15009;53.082;8.768;2022-11-02T08:04:47;21.60;99.90
27573;DHT22;15009;53.082;8.768;2022-11-02T08:08:00;21.60;99.90
27573;DHT22;15009;53.082;8.768;2022-11-02T08:11:06;21.60;99.90
27573;DHT22;15009;53.082;8.768;2022-11-02T08:14:07;21.60;99.90
27573;DHT22;15009;53.082;8.768;2022-11-02T08:17:07;21.50;99.90
27573;DHT22;15009;53.082;8.768;2022-11-02T08:20:09;21.50;99.90
27573;DHT22;15009;53.082;8.768;2022-11-02T08:23:10;21.50;99.90
27573;DHT22;15009;53.082;8.768;2022-11-02T08:26:11;21.50;99.90
27573;DHT22;15009;53.082;8.768;2022-11-02T08:29:12;21.50;99.90
27573;DHT22;15009;53.082;8.768;2022-11-02T08:32:12;21.50;99.90
27573;DHT22;15009;53.082;8.768;2022-11-02T08:35:13;21.60;99.90
27573;DHT22;15009;53.082;8.768;2022-11-02T08:38:14;21.60;99.90
27573;DHT22;15009;53.082;8.768;2022-11-02T08:41:15;21.70;99.90
27573;DHT22;15009;53.082;8.768;2022-11-02T08:44:16;21.70;99.90
27573;DHT22;15009;53.082;8.768;2022-11-02T08:47:17;21.80;99.90
27573;DHT22;15009;53.082;8.768;2022-11-02T08:50:18;21.80;99.90
27573;DHT22;15009;53.082;8.768;2022-11-02T08:53:18;21.90;99.90
27573;DHT22;15009;53.082;8.768;2022-11-02T08:56:19;21.90;99.90
27573;DHT22;15009;53.082;8.768;2022-11-02T08:59:20;22.00;99.90
27573;DHT22;15009;53.082;8.768;2022-11-02T09:02:21;22.00;99.90
27573;DHT22;15009;53.082;8.768;2022-11-02T09:05:21;22.00;99.90
27573;DHT22;15009;53.082;8.768;2022-11-02T09:08:22;22.00;99.90
27573;DHT22;15009;53.082;8.768;2022-11-02T09:11:23;22.00;99.90
27573;DHT22;15009;53.082;8.768;2022-11-02T09:14:23;22.00;99.90
27573;DHT22;15009;53.082;8.768;2022-11-02T09:17:24;21.90;99.90
27573;DHT22;15009;53.082;8.768;2022-11-02T09:20:24;21.90;99.90
27573;DHT22;15009;53.082;8.768;2022-11-02T09:23:25;21.90;99.90
27573;DHT22;15009;53.082;8.768;2022-11-02T09:26:26;21.90;99.90
27573;DHT22;15009;53.082;8.768;2022-11-02T09:29:27;21.90;99.90
27573;DHT22;15009;53.082;8.768;2022-11-02T09:32:28;21.90;99.90
27573;DHT22;15009;53.082;8.768;2022-11-02T09:35:38;21.90;99.90
27573;DHT22;15009;53.082;8.768;2022-11-02T09:38:39;21.90;99.90
27573;DHT22;15009;53.082;8.768;2022-11-02T09:41:48;21.80;99.90
27573;DHT22;15009;53.082;8.768;2022-11-02T09:44:58;21.80;99.90
27573;DHT22;15009;53.082;8.768;2022-11-02T09:48:16;21.80;99.90
27573;DHT22;15009;53.082;8.768;2022-11-02T09:51:21;21.80;99.90
27573;DHT22;15009;53.082;8.768;2022-11-02T09:54:42;21.80;99.90
27573;DHT22;15009;53.082;8.768;2022-11-02T09:57:45;21.80;99.90
27573;DHT22;15009;53.082;8.768;2022-11-02T10:00:48;21.70;99.90
27573;DHT22;15009;53.082;8.768;2022-11-02T10:11:00;21.70;99.90
27573;DHT22;15009;53.082;8.768;2022-11-02T10:14:17;21.70;99.90
27573;DHT22;15009;53.082;8.768;2022-11-02T10:17:24;21.80;99.90
27573;DHT22;15009;53.082;8.768;2022-11-02T10:20:28;21.80;99.90
27573;DHT22;15009;53.082;8.768;2022-11-02T10:23:53;21.80;99.90
27573;DHT22;15009;53.082;8.768;2022-11-02T10:27:03;21.80;99.90
27573;DHT22;15009;53.082;8.768;2022-11-02T10:30:11;21.90;99.90
27573;DHT22;15009;53.082;8.768;2022-11-02T10:33:15;21.90;99.90
27573;DHT22;15009;53.082;8.768;2022-11-02T10:36:46;21.90;99.90
27573;DHT22;15009;53.082;8.768;2022-11-02T10:43:24;21.90;99.90
27573;DHT22;15009;53.082;8.768;2022-11-02T10:53:13;21.90;99.90
27573;DHT22;15009;53.082;8.768;2022-11-02T10:56:30;21.90;99.90
27573;DHT22;15009;53.082;8.768;2022-11-02T10:59:31;21.90;99.90
27573;DHT22;15009;53.082;8.768;2022-11-02T11:02:32;21.90;99.90
27573;DHT22;15009;53.082;8.768;2022-11-02T11:05:35;21.80;99.90
27573;DHT22;15009;53.082;8.768;2022-11-02T11:08:46;21.90;99.90
27573;DHT22;15009;53.082;8.768;2022-11-02T11:12:12;21.90;99.90
27573;DHT22;15009;53.082;8.768;2022-11-02T11:15:30;21.90;99.90
27573;DHT22;15009;53.082;8.768;2022-11-02T11:18:31;21.90;99.90
27573;DHT22;15009;53.082;8.768;2022-11-02T11:21:39;21.80;99.90
27573;DHT22;15009;53.082;8.768;2022-11-02T11:24:41;21.80;99.90
27573;DHT22;15009;53.082;8.768;2022-11-02T11:27:46;21.80;99.90
27573;DHT22;15009;53.082;8.768;2022-11-02T11:31:00;21.80;99.90
27573;DHT22;15009;53.082;8.768;2022-11-02T11:34:02;21.80;99.90
27573;DHT22;15009;53.082;8.768;2022-11-02T11:37:11;21.80;99.90
27573;DHT22;15009;53.082;8.768;2022-11-02T11:40:19;21.90;99.90
27573;DHT22;15009;53.082;8.768;2022-11-02T11:43:25;21.90;99.90
27573;DHT22;15009;53.082;8.768;2022-11-02T11:46:42;21.90;99.90
27573;DHT22;15009;53.082;8.768;2022-11-02T11:49:46;21.80;99.90
27573;DHT22;15009;53.082;8.768;2022-11-02T11:56:24;21.70;99.90
27573;DHT22;15009;53.082;8.768;2022-11-02T11:59:43;21.80;99.90
27573;DHT22;15009;53.082;8.768;2022-11-02T12:03:01;21.80;99.90
27573;DHT22;15009;53.082;8.768;2022-11-02T12:36:01;21.80;99.90
27573;DHT22;15009;53.082;8.768;2022-11-02T12:39:34;21.70;99.90
27573;DHT22;15009;53.082;8.768;2022-11-02T12:42:34;21.80;99.90
27573;DHT22;15009;53.082;8.768;2022-11-02T12:45:55;21.70;99.90
27573;DHT22;15009;53.082;8.768;2022-11-02T12:49:13;21.70;99.90
27573;DHT22;15009;53.082;8.768;2022-11-02T12:56:01;21.70;99.90
27573;DHT22;15009;53.082;8.768;2022-11-02T12:59:02;21.70;99.90
27573;DHT22;15009;53.082;8.768;2022-11-02T13:02:09;21.70;99.90
27573;DHT22;15009;53.082;8.768;2022-11-02T13:05:20;21.80;99.90
27573;DHT22;15009;53.082;8.768;2022-11-02T13:08:49;21.80;99.90
27573;DHT22;15009;53.082;8.768;2022-11-02T13:12:13;21.70;99.90
27573;DHT22;15009;53.082;8.768;2022-11-02T13:15:18;21.70;99.90
27573;DHT22;15009;53.082;8.768;2022-11-02T13:18:24;21.70;99.90
27573;DHT22;15009;53.082;8.768;2022-11-02T13:21:35;21.70;99.90
27573;DHT22;15009;53.082;8.768;2022-11-02T13:24:48;21.70;99.90
27573;DHT22;15009;53.082;8.768;2022-11-02T13:27:53;21.70;99.90
27573;DHT22;15009;53.082;8.768;2022-11-02T13:30:56;21.70;99.90
27573;DHT22;15009;53.082;8.768;2022-11-02T13:34:00;21.70;99.90
27573;DHT22;15009;53.082;8.768;2022-11-02T13:37:13;21.70;99.90
27573;DHT22;15009;53.082;8.768;2022-11-02T13:40:26;21.70;99.90
27573;DHT22;15009;53.082;8.768;2022-11-02T13:49:55;21.70;99.90
27573;DHT22;15009;53.082;8.768;2022-11-02T13:53:00;21.60;99.90
27573;DHT22;15009;53.082;8.768;2022-11-02T13:56:07;21.60;99.90
27573;DHT22;15009;53.082;8.768;2022-11-02T13:59:18;21.60;99.90
27573;DHT22;15009;53.082;8.768;2022-11-02T14:02:21;21.60;99.90
27573;DHT22;15009;53.082;8.768;2022-11-02T14:05:31;21.60;99.90
27573;DHT22;15009;53.082;8.768;2022-11-02T14:08:41;21.60;99.90
27573;DHT22;15009;53.082;8.768;2022-11-02T14:11:48;21.60;99.90
27573;DHT22;15009;53.082;8.768;2022-11-02T14:18:14;21.60;99.90
27573;DHT22;15009;53.082;8.768;2022-11-02T14:25:14;21.60;99.90
27573;DHT22;15009;53.082;8.768;2022-11-02T14:31:35;21.70;99.90
27573;DHT22;15009;53.082;8.768;2022-11-02T14:38:13;21.60;99.90
27573;DHT22;15009;53.082;8.768;2022-11-02T14:41:41;21.50;99.90
27573;DHT22;15009;53.082;8.768;2022-11-02T14:48:05;21.50;99.90
27573;DHT22;15009;53.082;8.768;2022-11-02T14:51:24;21.60;99.90
27573;DHT22;15009;53.082;8.768;2022-11-02T14:54:28;21.60;99.90
27573;DHT22;15009;53.082;8.768;2022-11-02T14:57:41;21.60;99.90
27573;DHT22;15009;53.082;8.768;2022-11-02T15:03:47;21.20;99.90
27573;DHT22;15009;53.082;8.768;2022-11-02T15:06:56;21.30;99.90
27573;DHT22;15009;53.082;8.768;2022-11-02T15:10:08;21.10;99.90
27573;DHT22;15009;53.082;8.768;2022-11-02T15:13:35;20.70;99.90
27573;DHT22;15009;53.082;8.768;2022-11-02T15:16:44;20.40;99.90
27573;DHT22;15009;53.082;8.768;2022-11-02T15:23:18;20.10;99.90
27573;DHT22;15009;53.082;8.768;2022-11-02T15:26:29;20.30;99.90
27573;DHT22;15009;53.082;8.768;2022-11-02T15:29:32;20.40;99.90
27573;DHT22;15009;53.082;8.768;2022-11-02T15:32:39;20.60;99.90
27573;DHT22;15009;53.082;8.768;2022-11-02T15:35:42;20.80;99.90
27573;DHT22;15009;53.082;8.768;2022-11-02T15:38:51;20.80;99.90
27573;DHT22;15009;53.082;8.768;2022-11-02T15:42:00;20.90;99.90
27573;DHT22;15009;53.082;8.768;2022-11-02T15:48:32;21.10;99.90
27573;DHT22;15009;53.082;8.768;2022-11-02T15:58:30;21.10;99.90
27573;DHT22;15009;53.082;8.768;2022-11-02T16:01:34;21.20;99.90
27573;DHT22;15009;53.082;8.768;2022-11-02T16:04:35;21.20;99.90
27573;DHT22;15009;53.082;8.768;2022-11-02T16:07:36;21.20;99.90
27573;DHT22;15009;53.082;8.768;2022-11-02T16:10:41;21.20;99.90
27573;DHT22;15009;53.082;8.768;2022-11-02T16:13:45;21.20;99.90
27573;DHT22;15009;53.082;8.768;2022-11-02T16:16:48;21.30;99.90
27573;DHT22;15009;53.082;8.768;2022-11-02T16:19:49;21.70;99.90
27573;DHT22;15009;53.082;8.768;2022-11-02T16:26:02;22.30;99.90
27573;DHT22;15009;53.082;8.768;2022-11-02T16:29:06;22.50;99.90
27573;DHT22;15009;53.082;8.768;2022-11-02T16:32:11;22.60;99.90
27573;DHT22;15009;53.082;8.768;2022-11-02T16:35:15;22.70;99.90
27573;DHT22;15009;53.082;8.768;2022-11-02T16:38:19;22.80;99.90
27573;DHT22;15009;53.082;8.768;2022-11-02T16:41:20;22.90;99.90
27573;DHT22;15009;53.082;8.768;2022-11-02T16:44:26;23.00;99.90
27573;DHT22;15009;53.082;8.768;2022-11-02T16:47:36;23.10;99.90
27573;DHT22;15009;53.082;8.768;2022-11-02T16:50:38;23.20;99.90
27573;DHT22;15009;53.082;8.768;2022-11-02T16:53:39;23.30;99.90
27573;DHT22;15009;53.082;8.768;2022-11-02T16:56:46;23.40;99.90
27573;DHT22;15009;53.082;8.768;2022-11-02T16:59:52;23.40;99.90
27573;DHT22;15009;53.082;8.768;2022-11-02T17:02:55;23.50;99.90
27573;DHT22;15009;53.082;8.768;2022-11-02T17:05:57;23.60;99.90
27573;DHT22;15009;53.082;8.768;2022-11-02T17:08:58;23.70;99.90
27573;DHT22;15009;53.082;8.768;2022-11-02T17:12:32;23.70;99.90
27573;DHT22;15009;53.082;8.768;2022-11-02T17:15:33;23.80;99.90
27573;DHT22;15009;53.082;8.768;2022-11-02T17:18:34;23.90;99.90
27573;DHT22;15009;53.082;8.768;2022-11-02T17:21:35;23.90;99.90
27573;DHT22;15009;53.082;8.768;2022-11-02T17:24:36;23.90;99.90
27573;DHT22;15009;53.082;8.768;2022-11-02T17:27:38;24.10;99.90
27573;DHT22;15009;53.082;8.768;2022-11-02T17:30:40;24.10;99.90
27573;DHT22;15009;53.082;8.768;2022-11-02T17:33:42;24.10;99.90
27573;DHT22;15009;53.082;8.768;2022-11-02T17:36:45;24.00;99.90
27573;DHT22;15009;53.082;8.768;2022-11-02T17:39:46;23.90;99.90
27573;DHT22;15009;53.082;8.768;2022-11-02T17:42:46;23.70;99.90
27573;DHT22;15009;53.082;8.768;2022-11-02T17:45:59;23.60;99.90
27573;DHT22;15009;53.082;8.768;2022-11-02T17:49:00;23.50;99.90
27573;DHT22;15009;53.082;8.768;2022-11-02T17:52:00;23.50;99.90
27573;DHT22;15009;53.082;8.768;2022-11-02T17:55:01;23.40;99.90
27573;DHT22;15009;53.082;8.768;2022-11-02T17:58:02;23.30;99.90
27573;DHT22;15009;53.082;8.768;2022-11-02T18:01:03;23.30;99.90
27573;DHT22;15009;53.082;8.768;2022-11-02T18:04:04;23.30;99.90
27573;DHT22;15009;53.082;8.768;2022-11-02T18:07:05;23.20;99.90
27573;DHT22;15009;53.082;8.768;2022-11-02T18:10:06;23.20;99.90
27573;DHT22;15009;53.082;8.768;2022-11-02T18:13:15;23.10;99.90
27573;DHT22;15009;53.082;8.768;2022-11-02T18:16:16;23.10;99.90
27573;DHT22;15009;53.082;8.768;2022-11-02T18:19:17;23.10;99.90
27573;DHT22;15009;53.082;8.768;2022-11-02T18:22:17;23.00;99.90
27573;DHT22;15009;53.082;8.768;2022-11-02T18:25:18;23.00;99.90
27573;DHT22;15009;53.082;8.768;2022-11-02T18:28:19;23.00;99.90
27573;DHT22;15009;53.082;8.768;2022-11-02T18:31:20;23.00;99.90
27573;DHT22;15009;53.082;8.768;2022-11-02T18:34:20;22.90;99.90
27573;DHT22;15009;53.082;8.768;2022-11-02T18:37:21;22.90;99.90
27573;DHT22;15009;53.082;8.768;2022-11-02T18:40:22;22.90;99.90
27573;DHT22;15009;53.082;8.768;2022-11-02T18:43:23;22.90;99.90
27573;DHT22;15009;53.082;8.768;2022-11-02T18:46:24;22.80;99.90
27573;DHT22;15009;53.082;8.768;2022-11-02T18:49:25;22.80;99.90
27573;DHT22;15009;53.082;8.768;2022-11-02T18:52:26;22.80;99.90
27573;DHT22;15009;53.082;8.768;2022-11-02T18:55:28;22.80;99.90
27573;DHT22;15009;53.082;8.768;2022-11-02T18:58:30;22.70;99.90
27573;DHT22;15009;53.082;8.768;2022-11-02T19:01:36;22.70;99.90
27573;DHT22;15009;53.082;8.768;2022-11-02T19:04:37;22.70;99.90
27573;DHT22;15009;53.082;8.768;2022-11-02T19:07:38;22.70;99.90
27573;DHT22;15009;53.082;8.768;2022-11-02T19:10:57;22.60;99.90
27573;DHT22;15009;53.082;8.768;2022-11-02T19:13:58;22.60;99.90
27573;DHT22;15009;53.082;8.768;2022-11-02T19:16:58;22.60;99.90
27573;DHT22;15009;53.082;8.768;2022-11-02T19:19:59;22.60;99.90
27573;DHT22;15009;53.082;8.768;2022-11-02T19:23:00;22.50;99.90
27573;DHT22;15009;53.082;8.768;2022-11-02T19:26:00;22.50;99.90
27573;DHT22;15009;53.082;8.768;2022-11-02T19:29:01;22.50;99.90
27573;DHT22;15009;53.082;8.768;2022-11-02T19:32:02;22.40;99.90
27573;DHT22;15009;53.082;8.768;2022-11-02T19:35:02;22.40;99.90
27573;DHT22;15009;53.082;8.768;2022-11-02T19:38:03;22.40;99.90
27573;DHT22;15009;53.082;8.768;2022-11-02T19:41:08;22.40;99.90
27573;DHT22;15009;53.082;8.768;2022-11-02T19:44:10;22.30;99.90
27573;DHT22;15009;53.082;8.768;2022-11-02T19:47:10;22.30;99.90
27573;DHT22;15009;53.082;8.768;2022-11-02T19:50:11;22.30;99.90
27573;DHT22;15009;53.082;8.768;2022-11-02T19:53:12;22.30;99.90
27573;DHT22;15009;53.082;8.768;2022-11-02T19:56:14;22.30;99.90
27573;DHT22;15009;53.082;8.768;2022-11-02T19:59:14;22.50;99.90
27573;DHT22;15009;53.082;8.768;2022-11-02T20:02:15;22.60;99.90
27573;DHT22;15009;53.082;8.768;2022-11-02T20:05:16;22.70;99.90
27573;DHT22;15009;53.082;8.768;2022-11-02T20:08:16;22.90;99.90
27573;DHT22;15009;53.082;8.768;2022-11-02T20:11:17;23.00;99.90
27573;DHT22;15009;53.082;8.768;2022-11-02T20:14:18;23.20;99.90
27573;DHT22;15009;53.082;8.768;2022-11-02T20:17:19;23.30;99.90
27573;DHT22;15009;53.082;8.768;2022-11-02T20:20:20;23.40;99.90
27573;DHT22;15009;53.082;8.768;2022-11-02T20:23:21;23.50;99.90
27573;DHT22;15009;53.082;8.768;2022-11-02T20:29:23;23.60;99.90
27573;DHT22;15009;53.082;8.768;2022-11-02T20:32:24;23.70;99.90
27573;DHT22;15009;53.082;8.768;2022-11-02T20:35:25;23.80;99.90
27573;DHT22;15009;53.082;8.768;2022-11-02T20:38:25;23.80;99.90
27573;DHT22;15009;53.082;8.768;2022-11-02T20:41:26;23.90;99.90
27573;DHT22;15009;53.082;8.768;2022-11-02T20:44:26;23.90;99.90
27573;DHT22;15009;53.082;8.768;2022-11-02T20:47:27;24.00;99.90
27573;DHT22;15009;53.082;8.768;2022-11-02T20:50:28;24.10;99.90
27573;DHT22;15009;53.082;8.768;2022-11-02T20:53:28;24.20;99.90
27573;DHT22;15009;53.082;8.768;2022-11-02T20:56:29;24.20;99.90
27573;DHT22;15009;53.082;8.768;2022-11-02T20:59:30;24.30;99.90
27573;DHT22;15009;53.082;8.768;2022-11-02T21:02:30;24.30;99.90
27573;DHT22;15009;53.082;8.768;2022-11-02T21:05:31;24.40;99.90
27573;DHT22;15009;53.082;8.768;2022-11-02T21:08:32;24.40;99.90
27573;DHT22;15009;53.082;8.768;2022-11-02T21:11:33;24.50;99.90
27573;DHT22;15009;53.082;8.768;2022-11-02T21:14:52;24.50;99.90
27573;DHT22;15009;53.082;8.768;2022-11-02T21:17:53;24.60;99.90
27573;DHT22;15009;53.082;8.768;2022-11-02T21:20:53;24.60;99.90
27573;DHT22;15009;53.082;8.768;2022-11-02T21:23:54;24.60;99.90
27573;DHT22;15009;53.082;8.768;2022-11-02T21:26:55;24.60;99.90
27573;DHT22;15009;53.082;8.768;2022-11-02T21:29:56;24.50;99.90
27573;DHT22;15009;53.082;8.768;2022-11-02T21:32:57;24.60;99.90
27573;DHT22;15009;53.082;8.768;2022-11-02T21:35:58;24.60;99.90
27573;DHT22;15009;53.082;8.768;2022-11-02T21:38:59;24.70;99.90
27573;DHT22;15009;53.082;8.768;2022-11-02T21:42:03;24.80;99.90
27573;DHT22;15009;53.082;8.768;2022-11-02T21:45:05;24.80;99.90
27573;DHT22;15009;53.082;8.768;2022-11-02T21:48:06;24.90;99.90